sensor_id;sensor_type;location;lat;lon;timestamp;pressure;altitude;pressure_sealevel;temperature;humidity
77975;BME280;67164;51.202;0.278;2023-09-19T00:01:27;100561.27;;;23.93;43.46
77975;BME280;67164;51.202;0.278;2023-09-19T00:03:52;100562.59;;;23.86;43.48
77975;BME280;67164;51.202;0.278;2023-09-19T00:06:18;100564.78;;;24.13;43.55
77975;BME280;67164;51.202;0.278;2023-09-19T00:08:44;100564.85;;;24.18;43.56
77975;BME280;67164;51.202;0.278;2023-09-19T00:11:09;100558.06;;;23.82;43.76
77975;BME280;67164;51.202;0.278;2023-09-19T00:13:35;100557.64;;;24.08;43.60
77975;BME280;67164;51.202;0.278;2023-09-19T00:16:01;100557.56;;;23.84;43.75
77975;BME280;67164;51.202;0.278;2023-09-19T00:18:27;100559.92;;;23.94;43.64
77975;BME280;67164;51.202;0.278;2023-09-19T00:20:52;100564.74;;;23.91;43.52
77975;BME280;67164;51.202;0.278;2023-09-19T00:23:18;100566.44;;;24.21;43.45
77975;BME280;67164;51.202;0.278;2023-09-19T00:25:44;100568.60;;;23.77;43.57
77975;BME280;67164;51.202;0.278;2023-09-19T00:28:10;100565.31;;;24.14;43.64
77975;BME280;67164;51.202;0.278;2023-09-19T00:30:35;100564.94;;;23.57;43.87
77975;BME280;67164;51.202;0.278;2023-09-19T00:33:01;100564.40;;;23.82;43.88
77975;BME280;67164;51.202;0.278;2023-09-19T00:35:27;100565.34;;;23.95;43.54
77975;BME280;67164;51.202;0.278;2023-09-19T00:37:53;100569.77;;;24.21;43.53
77975;BME280;67164;51.202;0.278;2023-09-19T00:40:19;100566.81;;;24.04;43.41
77975;BME280;67164;51.202;0.278;2023-09-19T00:42:45;100565.71;;;23.95;43.49
77975;BME280;67164;51.202;0.278;2023-09-19T00:45:11;100560.67;;;23.84;43.85
77975;BME280;67164;51.202;0.278;2023-09-19T00:47:36;100560.10;;;23.91;43.69
77975;BME280;67164;51.202;0.278;2023-09-19T00:50:03;100557.17;;;23.81;43.96
77975;BME280;67164;51.202;0.278;2023-09-19T00:52:27;100558.65;;;24.21;43.71
77975;BME280;67164;51.202;0.278;2023-09-19T00:54:54;100555.33;;;23.93;43.80
77975;BME280;67164;51.202;0.278;2023-09-19T00:57:19;100554.56;;;23.73;43.95
77975;BME280;67164;51.202;0.278;2023-09-19T00:59:45;100555.27;;;24.12;43.74
77975;BME280;67164;51.202;0.278;2023-09-19T01:02:10;100556.16;;;24.04;43.96
77975;BME280;67164;51.202;0.278;2023-09-19T01:04:36;100558.85;;;24.01;44.07
77975;BME280;67164;51.202;0.278;2023-09-19T01:07:02;100565.95;;;23.83;44.06
77975;BME280;67164;51.202;0.278;2023-09-19T01:09:28;100567.34;;;23.99;44.04
77975;BME280;67164;51.202;0.278;2023-09-19T01:12:00;100569.31;;;24.05;44.03
77975;BME280;67164;51.202;0.278;2023-09-19T01:14:26;100567.71;;;24.22;43.79
77975;BME280;67164;51.202;0.278;2023-09-19T01:16:50;100574.04;;;24.04;43.94
77975;BME280;67164;51.202;0.278;2023-09-19T01:19:24;100572.80;;;23.93;43.60
77975;BME280;67164;51.202;0.278;2023-09-19T01:21:44;100574.62;;;24.14;43.83
77975;BME280;67164;51.202;0.278;2023-09-19T01:26:39;100575.25;;;24.01;43.92
77975;BME280;67164;51.202;0.278;2023-09-19T01:29:01;100578.29;;;23.70;43.99
77975;BME280;67164;51.202;0.278;2023-09-19T01:31:21;100582.03;;;24.01;43.97
77975;BME280;67164;51.202;0.278;2023-09-19T01:33:57;100585.68;;;23.87;44.15
77975;BME280;67164;51.202;0.278;2023-09-19T01:36:11;100585.94;;;23.62;44.21
77975;BME280;67164;51.202;0.278;2023-09-19T01:38:42;100586.38;;;23.83;43.83
77975;BME280;67164;51.202;0.278;2023-09-19T01:41:07;100586.23;;;23.97;43.88
77975;BME280;67164;51.202;0.278;2023-09-19T01:43:33;100589.05;;;23.86;43.88
77975;BME280;67164;51.202;0.278;2023-09-19T01:46:01;100593.93;;;23.98;44.07
77975;BME280;67164;51.202;0.278;2023-09-19T01:48:28;100593.54;;;23.84;43.86
77975;BME280;67164;51.202;0.278;2023-09-19T01:50:52;100592.71;;;24.00;43.88
77975;BME280;67164;51.202;0.278;2023-09-19T01:53:23;100590.12;;;24.15;43.73
77975;BME280;67164;51.202;0.278;2023-09-19T01:55:43;100589.29;;;23.80;43.77
77975;BME280;67164;51.202;0.278;2023-09-19T01:58:08;100590.28;;;23.66;44.02
77975;BME280;67164;51.202;0.278;2023-09-19T02:00:30;100589.98;;;23.94;43.92
77975;BME280;67164;51.202;0.278;2023-09-19T02:02:55;100589.07;;;23.76;43.91
77975;BME280;67164;51.202;0.278;2023-09-19T02:05:24;100582.36;;;23.93;44.07
77975;BME280;67164;51.202;0.278;2023-09-19T02:07:46;100580.99;;;23.45;43.97
77975;BME280;67164;51.202;0.278;2023-09-19T02:10:12;100572.45;;;24.09;43.87
77975;BME280;67164;51.202;0.278;2023-09-19T02:12:37;100569.16;;;23.58;44.27
77975;BME280;67164;51.202;0.278;2023-09-19T02:15:04;100568.53;;;23.61;44.18
77975;BME280;67164;51.202;0.278;2023-09-19T02:17:30;100562.47;;;24.02;43.93
77975;BME280;67164;51.202;0.278;2023-09-19T02:19:55;100569.87;;;23.94;43.97
77975;BME280;67164;51.202;0.278;2023-09-19T02:22:21;100566.25;;;23.88;44.09
77975;BME280;67164;51.202;0.278;2023-09-19T02:24:46;100563.58;;;23.76;44.02
77975;BME280;67164;51.202;0.278;2023-09-19T02:27:12;100568.10;;;23.15;44.32
77975;BME280;67164;51.202;0.278;2023-09-19T02:29:38;100574.28;;;23.95;43.95
77975;BME280;67164;51.202;0.278;2023-09-19T02:32:04;100579.36;;;23.69;43.96
77975;BME280;67164;51.202;0.278;2023-09-19T02:34:30;100581.92;;;23.89;44.12
77975;BME280;67164;51.202;0.278;2023-09-19T02:36:55;100581.47;;;23.67;44.22
77975;BME280;67164;51.202;0.278;2023-09-19T02:39:21;100581.50;;;23.69;44.33
77975;BME280;67164;51.202;0.278;2023-09-19T02:41:47;100583.30;;;23.90;44.19
77975;BME280;67164;51.202;0.278;2023-09-19T02:44:13;100583.90;;;23.79;44.20
77975;BME280;67164;51.202;0.278;2023-09-19T02:46:38;100589.90;;;23.76;43.99
77975;BME280;67164;51.202;0.278;2023-09-19T02:49:04;100596.61;;;23.66;44.13
77975;BME280;67164;51.202;0.278;2023-09-19T02:51:31;100603.15;;;23.68;44.39
77975;BME280;67164;51.202;0.278;2023-09-19T02:53:56;100605.03;;;24.04;43.90
77975;BME280;67164;51.202;0.278;2023-09-19T02:56:22;100602.32;;;23.83;44.13
77975;BME280;67164;51.202;0.278;2023-09-19T02:58:47;100598.65;;;23.48;44.26
77975;BME280;67164;51.202;0.278;2023-09-19T03:01:13;100593.54;;;23.75;44.13
77975;BME280;67164;51.202;0.278;2023-09-19T03:03:39;100598.05;;;23.61;44.01
77975;BME280;67164;51.202;0.278;2023-09-19T03:06:05;100595.33;;;23.57;44.25
77975;BME280;67164;51.202;0.278;2023-09-19T03:08:31;100590.59;;;23.56;44.22
77975;BME280;67164;51.202;0.278;2023-09-19T03:10:56;100586.55;;;23.55;44.20
77975;BME280;67164;51.202;0.278;2023-09-19T03:13:22;100589.08;;;23.68;44.38
77975;BME280;67164;51.202;0.278;2023-09-19T03:15:48;100593.87;;;23.54;44.29
77975;BME280;67164;51.202;0.278;2023-09-19T03:18:13;100591.67;;;23.78;44.29
77975;BME280;67164;51.202;0.278;2023-09-19T03:20:39;100584.97;;;23.62;44.01
77975;BME280;67164;51.202;0.278;2023-09-19T03:23:05;100581.61;;;23.71;44.26
77975;BME280;67164;51.202;0.278;2023-09-19T03:25:31;100574.81;;;23.80;44.13
77975;BME280;67164;51.202;0.278;2023-09-19T03:27:57;100576.91;;;23.79;44.17
77975;BME280;67164;51.202;0.278;2023-09-19T03:30:22;100581.40;;;23.85;44.06
77975;BME280;67164;51.202;0.278;2023-09-19T03:32:49;100581.84;;;23.87;44.23
77975;BME280;67164;51.202;0.278;2023-09-19T03:35:14;100578.19;;;23.87;44.12
77975;BME280;67164;51.202;0.278;2023-09-19T03:37:40;100577.96;;;23.58;44.22
77975;BME280;67164;51.202;0.278;2023-09-19T03:40:07;100568.05;;;23.72;44.25
77975;BME280;67164;51.202;0.278;2023-09-19T03:42:31;100559.33;;;23.89;44.14
77975;BME280;67164;51.202;0.278;2023-09-19T03:44:57;100560.73;;;23.77;44.28
77975;BME280;67164;51.202;0.278;2023-09-19T03:47:23;100556.42;;;23.57;44.50
77975;BME280;67164;51.202;0.278;2023-09-19T03:49:49;100555.94;;;23.61;44.49
77975;BME280;67164;51.202;0.278;2023-09-19T03:52:14;100551.75;;;23.62;44.53
77975;BME280;67164;51.202;0.278;2023-09-19T03:54:40;100542.18;;;23.80;44.32
77975;BME280;67164;51.202;0.278;2023-09-19T03:57:06;100545.46;;;23.74;44.47
77975;BME280;67164;51.202;0.278;2023-09-19T03:59:32;100541.20;;;23.41;44.25
77975;BME280;67164;51.202;0.278;2023-09-19T04:01:57;100537.74;;;23.71;44.54
77975;BME280;67164;51.202;0.278;2023-09-19T04:04:23;100541.24;;;23.65;44.54
77975;BME280;67164;51.202;0.278;2023-09-19T04:06:49;100535.84;;;23.82;44.17
77975;BME280;67164;51.202;0.278;2023-09-19T04:09:15;100531.75;;;23.78;44.31
77975;BME280;67164;51.202;0.278;2023-09-19T04:11:41;100529.37;;;23.90;44.28
77975;BME280;67164;51.202;0.278;2023-09-19T04:14:06;100527.80;;;23.82;44.24
77975;BME280;67164;51.202;0.278;2023-09-19T04:16:32;100523.68;;;23.35;44.16
77975;BME280;67164;51.202;0.278;2023-09-19T04:18:58;100522.68;;;23.80;44.28
77975;BME280;67164;51.202;0.278;2023-09-19T04:21:24;100521.82;;;23.83;44.32
77975;BME280;67164;51.202;0.278;2023-09-19T04:23:49;100518.83;;;23.76;44.32
77975;BME280;67164;51.202;0.278;2023-09-19T04:26:15;100513.37;;;23.56;44.55
77975;BME280;67164;51.202;0.278;2023-09-19T04:28:41;100512.80;;;23.58;44.56
77975;BME280;67164;51.202;0.278;2023-09-19T04:31:07;100510.82;;;23.38;44.84
77975;BME280;67164;51.202;0.278;2023-09-19T04:33:33;100507.72;;;23.40;44.56
77975;BME280;67164;51.202;0.278;2023-09-19T04:35:58;100506.71;;;23.74;44.43
77975;BME280;67164;51.202;0.278;2023-09-19T04:38:24;100510.63;;;23.78;44.26
77975;BME280;67164;51.202;0.278;2023-09-19T04:40:50;100506.41;;;23.65;44.49
77975;BME280;67164;51.202;0.278;2023-09-19T04:43:16;100508.52;;;23.78;44.38
77975;BME280;67164;51.202;0.278;2023-09-19T04:45:42;100511.37;;;23.65;44.56
77975;BME280;67164;51.202;0.278;2023-09-19T04:48:07;100509.57;;;23.86;44.18
77975;BME280;67164;51.202;0.278;2023-09-19T04:50:33;100506.33;;;23.62;44.67
77975;BME280;67164;51.202;0.278;2023-09-19T04:52:59;100500.29;;;23.67;44.56
77975;BME280;67164;51.202;0.278;2023-09-19T04:55:25;100497.54;;;23.68;44.37
77975;BME280;67164;51.202;0.278;2023-09-19T04:57:51;100500.01;;;23.64;44.50
77975;BME280;67164;51.202;0.278;2023-09-19T05:00:18;100500.15;;;23.49;44.84
77975;BME280;67164;51.202;0.278;2023-09-19T05:02:42;100492.19;;;23.63;44.63
77975;BME280;67164;51.202;0.278;2023-09-19T05:05:08;100489.07;;;23.43;44.74
77975;BME280;67164;51.202;0.278;2023-09-19T05:07:34;100488.40;;;23.43;44.50
77975;BME280;67164;51.202;0.278;2023-09-19T05:09:59;100489.96;;;23.71;44.57
77975;BME280;67164;51.202;0.278;2023-09-19T05:12:26;100490.70;;;23.52;44.47
77975;BME280;67164;51.202;0.278;2023-09-19T05:14:51;100491.70;;;23.59;44.48
77975;BME280;67164;51.202;0.278;2023-09-19T05:17:17;100497.90;;;24.03;44.34
77975;BME280;67164;51.202;0.278;2023-09-19T05:19:43;100498.96;;;23.95;44.02
77975;BME280;67164;51.202;0.278;2023-09-19T05:22:08;100494.77;;;23.95;44.38
77975;BME280;67164;51.202;0.278;2023-09-19T05:24:34;100493.04;;;23.96;44.31
77975;BME280;67164;51.202;0.278;2023-09-19T05:27:05;100487.52;;;24.08;44.25
77975;BME280;67164;51.202;0.278;2023-09-19T05:29:31;100482.17;;;24.20;44.11
77975;BME280;67164;51.202;0.278;2023-09-19T05:31:51;100480.71;;;23.54;44.26
77975;BME280;67164;51.202;0.278;2023-09-19T05:34:22;100479.21;;;24.20;44.11
77975;BME280;67164;51.202;0.278;2023-09-19T05:36:43;100484.30;;;23.95;44.53
77975;BME280;67164;51.202;0.278;2023-09-19T05:39:11;100484.93;;;23.69;44.53
77975;BME280;67164;51.202;0.278;2023-09-19T05:41:36;100485.51;;;23.90;44.30
77975;BME280;67164;51.202;0.278;2023-09-19T05:44:00;100481.16;;;23.99;44.48
77975;BME280;67164;51.202;0.278;2023-09-19T05:46:26;100483.08;;;23.86;44.50
77975;BME280;67164;51.202;0.278;2023-09-19T05:48:52;100484.09;;;24.03;44.48
77975;BME280;67164;51.202;0.278;2023-09-19T05:51:17;100485.00;;;23.89;44.70
77975;BME280;67164;51.202;0.278;2023-09-19T05:53:43;100486.30;;;23.45;44.51
77975;BME280;67164;51.202;0.278;2023-09-19T05:56:09;100484.20;;;24.03;44.43
77975;BME280;67164;51.202;0.278;2023-09-19T05:58:36;100487.32;;;23.77;44.49
77975;BME280;67164;51.202;0.278;2023-09-19T06:01:06;100495.22;;;23.68;44.63
77975;BME280;67164;51.202;0.278;2023-09-19T06:03:26;100493.65;;;23.92;44.69
77975;BME280;67164;51.202;0.278;2023-09-19T06:05:52;100490.05;;;23.95;44.69
77975;BME280;67164;51.202;0.278;2023-09-19T06:08:18;100484.42;;;23.86;44.75
77975;BME280;67164;51.202;0.278;2023-09-19T06:10:43;100479.73;;;23.91;44.75
77975;BME280;67164;51.202;0.278;2023-09-19T06:13:09;100471.65;;;23.47;45.11
77975;BME280;67164;51.202;0.278;2023-09-19T06:15:35;100465.46;;;23.79;44.93
77975;BME280;67164;51.202;0.278;2023-09-19T06:18:04;100466.04;;;23.82;44.97
77975;BME280;67164;51.202;0.278;2023-09-19T06:20:27;100462.58;;;23.51;45.00
77975;BME280;67164;51.202;0.278;2023-09-19T06:22:54;100467.19;;;23.82;44.89
77975;BME280;67164;51.202;0.278;2023-09-19T06:25:18;100464.35;;;23.81;44.88
77975;BME280;67164;51.202;0.278;2023-09-19T06:27:48;100463.86;;;23.93;44.82
77975;BME280;67164;51.202;0.278;2023-09-19T06:30:11;100462.04;;;23.87;44.89
77975;BME280;67164;51.202;0.278;2023-09-19T06:32:38;100453.81;;;24.00;44.70
77975;BME280;67164;51.202;0.278;2023-09-19T06:35:04;100451.48;;;23.95;44.67
77975;BME280;67164;51.202;0.278;2023-09-19T06:37:27;100450.87;;;24.04;44.69
77975;BME280;67164;51.202;0.278;2023-09-19T06:39:52;100445.97;;;24.14;44.59
77975;BME280;67164;51.202;0.278;2023-09-19T06:42:18;100451.35;;;23.80;44.73
77975;BME280;67164;51.202;0.278;2023-09-19T06:44:44;100447.91;;;24.26;44.59
77975;BME280;67164;51.202;0.278;2023-09-19T06:47:10;100441.96;;;24.18;45.00
77975;BME280;67164;51.202;0.278;2023-09-19T06:49:36;100448.12;;;24.35;44.87
77975;BME280;67164;51.202;0.278;2023-09-19T06:52:01;100444.09;;;24.13;45.35
77975;BME280;67164;51.202;0.278;2023-09-19T06:54:27;100442.63;;;24.46;46.03
77975;BME280;67164;51.202;0.278;2023-09-19T06:56:53;100441.39;;;24.43;46.55
77975;BME280;67164;51.202;0.278;2023-09-19T06:59:19;100436.87;;;24.15;47.25
77975;BME280;67164;51.202;0.278;2023-09-19T07:01:45;100433.72;;;24.19;46.95
77975;BME280;67164;51.202;0.278;2023-09-19T07:04:10;100432.60;;;24.11;46.82
77975;BME280;67164;51.202;0.278;2023-09-19T07:06:36;100430.31;;;24.35;47.01
77975;BME280;67164;51.202;0.278;2023-09-19T07:09:02;100430.88;;;23.95;46.97
77975;BME280;67164;51.202;0.278;2023-09-19T07:11:29;100437.75;;;23.97;46.98
77975;BME280;67164;51.202;0.278;2023-09-19T07:13:53;100438.05;;;23.93;47.62
77975;BME280;67164;51.202;0.278;2023-09-19T07:16:19;100433.35;;;24.13;47.47
77975;BME280;67164;51.202;0.278;2023-09-19T07:18:45;100430.73;;;24.02;48.00
77975;BME280;67164;51.202;0.278;2023-09-19T07:21:11;100424.78;;;23.87;48.43
77975;BME280;67164;51.202;0.278;2023-09-19T07:23:36;100425.35;;;23.89;47.74
77975;BME280;67164;51.202;0.278;2023-09-19T07:26:02;100424.85;;;23.97;47.65
77975;BME280;67164;51.202;0.278;2023-09-19T07:28:28;100417.31;;;24.40;46.92
77975;BME280;67164;51.202;0.278;2023-09-19T07:30:54;100413.31;;;24.08;47.62
77975;BME280;67164;51.202;0.278;2023-09-19T07:33:19;100409.74;;;24.43;46.86
77975;BME280;67164;51.202;0.278;2023-09-19T07:35:46;100404.51;;;24.32;46.65
77975;BME280;67164;51.202;0.278;2023-09-19T07:38:11;100400.07;;;24.50;46.89
77975;BME280;67164;51.202;0.278;2023-09-19T07:40:37;100393.80;;;23.95;46.97
77975;BME280;67164;51.202;0.278;2023-09-19T07:43:03;100392.87;;;24.45;46.86
77975;BME280;67164;51.202;0.278;2023-09-19T07:45:28;100390.17;;;24.37;47.04
77975;BME280;67164;51.202;0.278;2023-09-19T07:47:54;100387.13;;;24.52;46.82
77975;BME280;67164;51.202;0.278;2023-09-19T07:50:20;100381.59;;;24.59;46.95
77975;BME280;67164;51.202;0.278;2023-09-19T07:52:46;100387.81;;;24.52;46.85
77975;BME280;67164;51.202;0.278;2023-09-19T07:55:11;100397.14;;;24.38;46.54
77975;BME280;67164;51.202;0.278;2023-09-19T07:57:42;100391.00;;;24.18;46.42
77975;BME280;67164;51.202;0.278;2023-09-19T08:00:04;100384.48;;;24.66;46.41
77975;BME280;67164;51.202;0.278;2023-09-19T08:02:28;100383.93;;;24.65;46.53
77975;BME280;67164;51.202;0.278;2023-09-19T08:04:54;100388.50;;;24.41;46.48
77975;BME280;67164;51.202;0.278;2023-09-19T08:07:20;100383.16;;;24.46;46.38
77975;BME280;67164;51.202;0.278;2023-09-19T08:09:45;100383.84;;;24.19;46.21
77975;BME280;67164;51.202;0.278;2023-09-19T08:12:11;100378.44;;;24.54;46.32
77975;BME280;67164;51.202;0.278;2023-09-19T08:14:37;100376.18;;;24.39;46.49
77975;BME280;67164;51.202;0.278;2023-09-19T08:17:03;100374.00;;;24.38;46.45
77975;BME280;67164;51.202;0.278;2023-09-19T08:19:29;100364.85;;;24.10;46.52
77975;BME280;67164;51.202;0.278;2023-09-19T08:21:55;100366.45;;;24.22;46.53
77975;BME280;67164;51.202;0.278;2023-09-19T08:24:25;100366.29;;;24.19;46.71
77975;BME280;67164;51.202;0.278;2023-09-19T08:26:46;100368.09;;;24.19;46.29
77975;BME280;67164;51.202;0.278;2023-09-19T08:29:12;100373.53;;;24.45;46.45
77975;BME280;67164;51.202;0.278;2023-09-19T08:31:37;100374.28;;;24.26;46.42
77975;BME280;67164;51.202;0.278;2023-09-19T08:34:03;100370.59;;;24.63;46.35
77975;BME280;67164;51.202;0.278;2023-09-19T08:36:30;100374.14;;;24.62;46.44
77975;BME280;67164;51.202;0.278;2023-09-19T08:38:55;100376.81;;;24.54;46.59
77975;BME280;67164;51.202;0.278;2023-09-19T08:41:21;100378.07;;;24.43;46.40
77975;BME280;67164;51.202;0.278;2023-09-19T08:43:47;100373.66;;;24.32;46.66
77975;BME280;67164;51.202;0.278;2023-09-19T08:46:15;100369.70;;;24.23;46.71
77975;BME280;67164;51.202;0.278;2023-09-19T08:48:42;100375.73;;;24.51;46.83
77975;BME280;67164;51.202;0.278;2023-09-19T08:51:07;100380.18;;;24.57;46.71
77975;BME280;67164;51.202;0.278;2023-09-19T08:53:38;100375.13;;;24.41;47.06
77975;BME280;67164;51.202;0.278;2023-09-19T08:55:55;100380.54;;;24.36;46.68
77975;BME280;67164;51.202;0.278;2023-09-19T08:58:22;100381.60;;;24.58;46.70
77975;BME280;67164;51.202;0.278;2023-09-19T09:00:48;100386.48;;;24.65;46.62
77975;BME280;67164;51.202;0.278;2023-09-19T09:03:13;100386.80;;;24.45;46.52
77975;BME280;67164;51.202;0.278;2023-09-19T09:05:41;100383.59;;;24.63;46.74
77975;BME280;67164;51.202;0.278;2023-09-19T09:08:06;100368.54;;;24.42;47.03
77975;BME280;67164;51.202;0.278;2023-09-19T09:10:31;100355.78;;;24.18;47.13
77975;BME280;67164;51.202;0.278;2023-09-19T09:12:57;100354.28;;;24.22;47.14
77975;BME280;67164;51.202;0.278;2023-09-19T09:15:22;100354.88;;;24.26;47.65
77975;BME280;67164;51.202;0.278;2023-09-19T09:17:47;100355.40;;;24.18;48.19
77975;BME280;67164;51.202;0.278;2023-09-19T09:20:12;100365.32;;;24.09;48.89
77975;BME280;67164;51.202;0.278;2023-09-19T09:22:38;100368.08;;;23.91;48.80
77975;BME280;67164;51.202;0.278;2023-09-19T09:25:04;100359.93;;;24.05;48.24
77975;BME280;67164;51.202;0.278;2023-09-19T09:27:30;100364.02;;;24.04;48.43
77975;BME280;67164;51.202;0.278;2023-09-19T09:29:55;100363.99;;;23.98;48.50
77975;BME280;67164;51.202;0.278;2023-09-19T09:32:22;100362.28;;;23.96;48.36
77975;BME280;67164;51.202;0.278;2023-09-19T09:34:49;100360.25;;;24.02;47.99
77975;BME280;67164;51.202;0.278;2023-09-19T09:37:14;100364.07;;;24.28;47.85
77975;BME280;67164;51.202;0.278;2023-09-19T09:39:38;100369.69;;;24.06;47.80
77975;BME280;67164;51.202;0.278;2023-09-19T09:42:04;100366.44;;;24.29;47.40
77975;BME280;67164;51.202;0.278;2023-09-19T09:44:30;100368.22;;;24.20;47.95
77975;BME280;67164;51.202;0.278;2023-09-19T09:46:55;100369.88;;;24.50;47.67
77975;BME280;67164;51.202;0.278;2023-09-19T09:49:23;100372.51;;;24.33;47.41
77975;BME280;67164;51.202;0.278;2023-09-19T09:51:49;100355.42;;;24.16;47.12
77975;BME280;67164;51.202;0.278;2023-09-19T09:54:12;100370.66;;;24.64;47.02
77975;BME280;67164;51.202;0.278;2023-09-19T09:59:02;100372.43;;;24.68;46.87
77975;BME280;67164;51.202;0.278;2023-09-19T10:01:27;100376.51;;;24.54;47.10
77975;BME280;67164;51.202;0.278;2023-09-19T10:03:58;100373.48;;;23.97;47.32
77975;BME280;67164;51.202;0.278;2023-09-19T10:06:18;100384.66;;;24.03;47.68
77975;BME280;67164;51.202;0.278;2023-09-19T10:11:16;100380.58;;;24.22;47.06
77975;BME280;67164;51.202;0.278;2023-09-19T10:13:35;100370.27;;;23.80;46.75
77975;BME280;67164;51.202;0.278;2023-09-19T10:16:05;100364.67;;;24.22;46.60
77975;BME280;67164;51.202;0.278;2023-09-19T10:18:26;100365.15;;;24.44;46.08
77975;BME280;67164;51.202;0.278;2023-09-19T10:20:51;100362.81;;;24.62;46.17
77975;BME280;67164;51.202;0.278;2023-09-19T10:23:18;100353.34;;;24.31;46.27
77975;BME280;67164;51.202;0.278;2023-09-19T10:25:42;100358.17;;;23.99;46.34
77975;BME280;67164;51.202;0.278;2023-09-19T10:28:07;100360.26;;;24.27;46.30
77975;BME280;67164;51.202;0.278;2023-09-19T10:30:33;100351.35;;;23.81;46.62
77975;BME280;67164;51.202;0.278;2023-09-19T10:33:01;100363.92;;;24.35;46.56
77975;BME280;67164;51.202;0.278;2023-09-19T10:35:23;100358.17;;;24.21;46.32
77975;BME280;67164;51.202;0.278;2023-09-19T10:37:49;100356.84;;;24.17;46.47
77975;BME280;67164;51.202;0.278;2023-09-19T10:40:14;100358.79;;;24.59;46.06
77975;BME280;67164;51.202;0.278;2023-09-19T10:42:40;100366.26;;;24.60;46.02
77975;BME280;67164;51.202;0.278;2023-09-19T10:45:07;100362.87;;;24.26;46.22
77975;BME280;67164;51.202;0.278;2023-09-19T10:47:30;100369.00;;;24.10;46.00
77975;BME280;67164;51.202;0.278;2023-09-19T10:49:55;100370.50;;;24.13;46.00
77975;BME280;67164;51.202;0.278;2023-09-19T10:52:23;100373.50;;;24.65;45.85
77975;BME280;67164;51.202;0.278;2023-09-19T10:54:48;100366.79;;;23.93;46.24
77975;BME280;67164;51.202;0.278;2023-09-19T10:57:11;100364.92;;;24.42;45.80
77975;BME280;67164;51.202;0.278;2023-09-19T10:59:37;100365.83;;;24.07;45.79
77975;BME280;67164;51.202;0.278;2023-09-19T11:04:30;100356.35;;;24.46;45.56
77975;BME280;67164;51.202;0.278;2023-09-19T11:07:01;100363.17;;;24.06;45.78
77975;BME280;67164;51.202;0.278;2023-09-19T11:09:19;100378.08;;;24.14;45.77
77975;BME280;67164;51.202;0.278;2023-09-19T11:11:46;100369.39;;;24.61;45.82
77975;BME280;67164;51.202;0.278;2023-09-19T11:14:30;100373.79;;;24.33;45.72
77975;BME280;67164;51.202;0.278;2023-09-19T11:19:02;100370.58;;;24.29;45.91
77975;BME280;67164;51.202;0.278;2023-09-19T11:21:41;100369.28;;;24.33;45.81
77975;BME280;67164;51.202;0.278;2023-09-19T11:28:44;100366.01;;;24.10;45.96
77975;BME280;67164;51.202;0.278;2023-09-19T11:33:36;100359.31;;;24.16;45.78
77975;BME280;67164;51.202;0.278;2023-09-19T11:36:03;100346.45;;;24.40;45.75
77975;BME280;67164;51.202;0.278;2023-09-19T11:43:29;100353.34;;;24.18;45.78
77975;BME280;67164;51.202;0.278;2023-09-19T11:46:02;100355.46;;;24.26;46.11
77975;BME280;67164;51.202;0.278;2023-09-19T11:48:10;100353.64;;;24.25;46.37
77975;BME280;67164;51.202;0.278;2023-09-19T11:50:35;100350.03;;;23.67;47.21
77975;BME280;67164;51.202;0.278;2023-09-19T11:53:01;100349.28;;;24.13;46.48
77975;BME280;67164;51.202;0.278;2023-09-19T11:55:28;100348.86;;;24.54;46.54
77975;BME280;67164;51.202;0.278;2023-09-19T11:57:55;100346.97;;;24.50;46.52
77975;BME280;67164;51.202;0.278;2023-09-19T12:00:18;100348.35;;;24.50;46.57
77975;BME280;67164;51.202;0.278;2023-09-19T12:02:47;100348.33;;;24.21;46.67
77975;BME280;67164;51.202;0.278;2023-09-19T12:05:08;100355.45;;;24.44;46.69
77975;BME280;67164;51.202;0.278;2023-09-19T12:07:43;100359.38;;;23.97;46.70
77975;BME280;67164;51.202;0.278;2023-09-19T12:10:04;100359.39;;;24.52;46.60
77975;BME280;67164;51.202;0.278;2023-09-19T12:12:31;100355.33;;;24.26;46.63
77975;BME280;67164;51.202;0.278;2023-09-19T12:14:52;100347.22;;;23.99;46.70
77975;BME280;67164;51.202;0.278;2023-09-19T12:17:17;100351.27;;;24.00;46.89
77975;BME280;67164;51.202;0.278;2023-09-19T12:19:49;100346.61;;;23.68;47.07
77975;BME280;67164;51.202;0.278;2023-09-19T12:22:07;100350.44;;;24.17;46.75
77975;BME280;67164;51.202;0.278;2023-09-19T12:24:33;100359.36;;;23.90;46.82
77975;BME280;67164;51.202;0.278;2023-09-19T12:27:03;100352.90;;;24.54;46.71
77975;BME280;67164;51.202;0.278;2023-09-19T12:29:24;100356.41;;;24.28;46.76
77975;BME280;67164;51.202;0.278;2023-09-19T12:31:51;100357.91;;;24.19;46.92
77975;BME280;67164;51.202;0.278;2023-09-19T12:34:17;100356.39;;;24.29;47.14
77975;BME280;67164;51.202;0.278;2023-09-19T12:36:41;100358.05;;;24.00;47.28
77975;BME280;67164;51.202;0.278;2023-09-19T12:39:06;100347.97;;;24.16;47.47
77975;BME280;67164;51.202;0.278;2023-09-19T12:41:32;100354.53;;;23.71;47.50
77975;BME280;67164;51.202;0.278;2023-09-19T12:43:58;100351.05;;;23.94;47.59
77975;BME280;67164;51.202;0.278;2023-09-19T12:46:24;100357.98;;;24.35;47.33
77975;BME280;67164;51.202;0.278;2023-09-19T12:51:15;100356.43;;;23.83;47.82
77975;BME280;67164;51.202;0.278;2023-09-19T12:53:42;100344.25;;;24.11;47.85
77975;BME280;67164;51.202;0.278;2023-09-19T12:56:07;100349.85;;;23.96;47.67
77975;BME280;67164;51.202;0.278;2023-09-19T12:58:33;100347.43;;;23.71;47.74
77975;BME280;67164;51.202;0.278;2023-09-19T13:00:58;100348.18;;;23.96;47.73
77975;BME280;67164;51.202;0.278;2023-09-19T13:03:27;100342.90;;;23.67;47.87
77975;BME280;67164;51.202;0.278;2023-09-19T13:05:51;100342.95;;;24.21;47.76
77975;BME280;67164;51.202;0.278;2023-09-19T13:08:21;100345.67;;;24.19;47.82